METAR EFET 060150Z AUTO 18007KT 140V200 CAVOK M08/M10 Q0993=
METAR EFHA 060150Z AUTO 15006KT CAVOK M12/M13 Q1012=
METAR EFHK 060150Z 22004KT CAVOK M09/M11 Q1016 NOSIG=
METAR EFIV 060150Z AUTO 23011KT 6000 -SN OVC035 M08/M11 Q0995=
METAR EFJO 060150Z AUTO VRB01KT CAVOK M16/M17 Q1011=
METAR EFJY 060150Z AUTO 15005KT CAVOK M17/M19 Q1011=
METAR EFKE 060150Z AUTO 17009KT CAVOK M06/M08 Q1002=
METAR EFKI 060150Z AUTO 17007KT CAVOK M13/M14 Q1007=
METAR EFKK 060150Z AUTO 18011KT CAVOK M05/M08 Q1006=
METAR EFKS 060150Z AUTO 13004KT CAVOK M19/M21 Q1003=
METAR EFKT 060150Z AUTO 17008KT CAVOK M10/M13 Q0996=
METAR EFKU 060150Z AUTO VRB02KT 9999 NSC M13/M14 Q1011=
METAR EFLA 060150Z AUTO 22006KT 9999 FEW170/// M11/M12 Q1014=
METAR EFMA 060150Z AUTO 23005KT 200V300 CAVOK M00/M06 Q1015=
METAR EFMI 060150Z AUTO 28002KT CAVOK M17/M19 Q1013=
METAR EFOU 060150Z AUTO 18008KT CAVOK M09/M11 Q1005=
METAR EFPO 060150Z AUTO 17007KT CAVOK M04/M06 Q1012=
METAR EFRO 060150Z AUTO 19008KT CAVOK M10/M11 Q1000=
METAR EFSA 060150Z AUTO VRB01KT 9999 NSC M14/M15 Q1013=
METAR EFSI 060150Z AUTO 16005KT 130V190 CAVOK M06/M08 Q1009=
METAR EFTP 060150Z AUTO 20006KT CAVOK M08/M10 Q1013=
METAR EFTU 060150Z AUTO 20006KT CAVOK M05/M08 Q1015=
METAR EFUT 060150Z AUTO 19004KT 170V230 9999 NCD M12/M14 Q1014=
METAR EFVA 060150Z AUTO 19009KT CAVOK M04/M06 Q1008=
ILHF 060150Z AUTO 14001KT CAVOK M11/M13 Q1017=
ILIK 060150Z AUTO 21005KT CAVOK M08/M10 Q1015=
ILJY 060150Z AUTO 15003KT CAVOK M15/M17 Q1011=
ILKA 060150Z AUTO 20008KT CAVOK M05/M07 Q1009=
ILKM 060150Z AUTO 16006KT CAVOK M12/M14 Q1000=
ILMI 060150Z AUTO 29003KT CAVOK M16/M18 Q1013=
ILPR 060150Z AUTO 17002KT CAVOK M14/M15 Q1016=
ILPU 060150Z AUTO 16007KT CAVOK M14/M15 Q1004=
ILQA 060150Z AUTO 14008KT CAVOK M13/M15 Q1001=
ILQB 060150Z AUTO 21006KT 2000 -SN OVC027 M08/M10 Q0995=
ILQC 060150Z AUTO 17007KT CAVOK M07/M10 Q0995=
ILQD 060150Z AUTO /////KT 9999 -SHSN NSC M07/M10 Q////=
ILQE 060150Z AUTO 15007KT CAVOK M09/M11 Q0999=
ILQF 060150Z AUTO 16004KT CAVOK M11/M13 Q1001=
ILQH 060150Z AUTO 18017KT CAVOK M08/M09 Q1004=
ILQI 060150Z AUTO 23009KT //// // BKN024 M07/M09 Q0993=
ILQJ 060150Z AUTO 20016KT CAVOK M05/M07 Q1002=
ILQK 060150Z AUTO 24018KT 9999 ////// M09/M10 Q0991=
ILQL 060150Z AUTO 14010KT 9999 ////// M10/M11 Q1005=
ILQM 060150Z AUTO 22006KT CAVOK M09/M11 Q////=
ILQN 060150Z AUTO 15008KT 9999 SG BKN020 M06/M07 Q0991=
ILQO 060150Z AUTO 19008KT CAVOK M10/M13 Q0998=
ILQP 060150Z AUTO 19019KT 9999 ////// M05/M08 Q1005=
ILQQ 060150Z AUTO 22007KT CAVOK M04/M07 Q1001=
ILQR 060150Z AUTO 06002KT CAVOK M10/M12 Q1001=
ILQS 060150Z AUTO 12003KT 9999 -SHSN NSC M17/M19 Q1005=
ILQT 060150Z AUTO 16006KT CAVOK M09/M11 Q0992=
ILQU 060150Z AUTO 17009KT 3700 SG FEW029 OVC046 M08/M10 Q0993=
ILQV 060150Z AUTO 20007KT CAVOK M09/M12 Q0996=
ILQX 060150Z AUTO 18006KT CAVOK M10/M11 Q1005=
ILQY 060150Z AUTO 19007KT CAVOK M12/M13 Q1006=
ILRO 060150Z AUTO /////KT 9999 ////// M12/M13 Q////=
ILRU 060150Z AUTO 17006KT CAVOK M13/M14 Q1002=
ILWA 060150Z AUTO 26005KT CAVOK M06/M08 Q1016=
ILWD 060150Z AUTO /////KT //// // NSC M13/M13 Q////=
ILWE 060150Z AUTO 20008KT 7000 -SHSN NSC M08/M11 Q0992=
ILWF 060150Z AUTO 18003KT CAVOK M20/M22 Q////=
ILWG 060150Z AUTO /////KT CAVOK M10/M12 Q1012=
ILXA 060150Z AUTO /////KT CAVOK M09/M11 Q1010=
ILXB 060150Z AUTO 17005KT CAVOK M04/M06 Q1012=
ILXC 060150Z AUTO 20005KT 9999 FEW003 M11/M13 Q1012=
ILXD 060150Z AUTO /////KT CAVOK M15/M17 Q1012=
ILXE 060150Z AUTO 20006KT CAVOK M12/M13 Q1007=
ILXF 060150Z AUTO 22023KT CAVOK 00/M02 Q1013=
ILXG 060150Z AUTO 21018KT CAVOK M00/M02 Q1009=
ILXI 060150Z AUTO 22003KT CAVOK M17/M19 Q1010=
ILXJ 060150Z AUTO 20003KT CAVOK M12/M13 Q1007=
ILXK 060150Z AUTO 22002KT CAVOK M18/M19 Q1007=
ILXL 060150Z AUTO /////KT 9999 FEW038 BKN094 //////CB M09/M10 Q1008=
ILXM 060150Z AUTO /////KT CAVOK M20/M22 Q////=
ILXN 060150Z AUTO 18008KT 9999 FEW039 M07/M08 Q1011=
ILXO 060150Z AUTO 20010KT CAVOK M04/M05 Q1009=
ILXP 060150Z AUTO 22018KT CAVOK 00/M02 Q1011=
ILXQ 060150Z AUTO /////KT CAVOK M12/M13 Q////=
ILXR 060150Z AUTO 00000KT CAVOK M21/M23 Q1010=
ILXS 060150Z AUTO 20005KT CAVOK M13/M14 Q1008=
ILXT 060150Z AUTO 20016KT CAVOK M03/M06 Q1005=
ILXU 060150Z AUTO /////KT CAVOK M14/M15 Q1013=
ILXV 060150Z AUTO 18003KT CAVOK M11/M12 Q1010=
ILXW 060150Z AUTO 21007KT CAVOK M09/M11 Q1008=
ILXX 060150Z AUTO 18010KT CAVOK M04/M05 Q1007=
ILXY 060150Z AUTO 16003KT CAVOK M12/M14 Q1011=
ILXZ 060150Z AUTO 25004KT CAVOK M11/M13 Q////=
ILYL 060150Z AUTO 14006KT CAVOK M10/M12 Q1007=
ILZA 060150Z AUTO 25012KT CAVOK M04/M06 Q1017=
ILZB 060150Z AUTO 24008KT CAVOK M01/M06 Q1015=
ILZC 060150Z AUTO /////KT CAVOK M12/M13 Q1014=
ILZD 060150Z AUTO 22007KT CAVOK M07/M09 Q1017=
ILZE 060150Z AUTO 26007KT CAVOK M06/M09 Q1017=
ILZF 060150Z AUTO 21003KT CAVOK M12/M12 Q1016=
ILZG 060150Z AUTO /////KT CAVOK M10/M11 Q1016=
ILZH 060150Z AUTO /////KT CAVOK M07/M10 Q1013=
ILZI 060150Z AUTO 22016KT CAVOK M00/M04 Q1014=
ILZJ 060150Z AUTO 22007KT CAVOK M08/M09 Q1014=
ILZK 060150Z AUTO 22014KT CAVOK M01/M05 Q1015=
ILZL 060150Z AUTO 20003KT CAVOK M11/M13 Q1014=
ILZM 060150Z AUTO /////KT CAVOK M12/M13 Q1015=
ILZO 060150Z AUTO 28008KT CAVOK M06/M09 Q1016=
ILZP 060150Z AUTO 19005KT 9999 FEW044 M06/M08 Q1013=
ILZQ 060150Z AUTO 22004KT CAVOK M12/M12 Q1015=
ILZR 060150Z AUTO 18004KT CAVOK M05/M07 Q1015=
ILZS 060150Z AUTO 27009KT CAVOK M05/M06 Q1017=
ILZT 060150Z AUTO 25021KT 9999 FEW026 SCT032 M01/M06 Q1017=
ILZU 060150Z AUTO 23023KT CAVOK M00/M04 Q1017=
ILZV 060150Z AUTO 22002KT CAVOK M10/M11 Q1016=
ILZW 060150Z AUTO 26006KT CAVOK M06/M08 Q1016=
ILZX 060150Z AUTO 23008KT CAVOK M07/M10 Q1017=
ILZY 060150Z AUTO 24021KT CAVOK 01/M04 Q1016=
ILZZ 060150Z AUTO /////KT CAVOK M12/M14 Q1015=